sensor_id;sensor_type;location;lat;lon;timestamp;pressure;altitude;pressure_sealevel;temperature;humidity
69980;BME280;57318;56.232;43.944;2023-05-22T00:02:01;100034.53;;;13.13;66.00
69980;BME280;57318;56.232;43.944;2023-05-22T00:04:30;100041.78;;;13.11;66.14
69980;BME280;57318;56.232;43.944;2023-05-22T00:06:55;100033.56;;;13.03;66.46
69980;BME280;57318;56.232;43.944;2023-05-22T00:09:23;100040.84;;;13.00;66.29
69980;BME280;57318;56.232;43.944;2023-05-22T00:11:50;100040.38;;;12.95;66.34
69980;BME280;57318;56.232;43.944;2023-05-22T00:14:15;100046.81;;;12.93;66.52
69980;BME280;57318;56.232;43.944;2023-05-22T00:16:41;100044.13;;;12.93;66.08
69980;BME280;57318;56.232;43.944;2023-05-22T00:19:07;100046.09;;;12.91;66.46
69980;BME280;57318;56.232;43.944;2023-05-22T00:21:38;100047.88;;;12.90;66.11
69980;BME280;57318;56.232;43.944;2023-05-22T00:24:04;100045.34;;;12.89;66.35
69980;BME280;57318;56.232;43.944;2023-05-22T00:26:30;100049.72;;;12.90;66.00
69980;BME280;57318;56.232;43.944;2023-05-22T00:28:56;100044.63;;;12.87;66.14
69980;BME280;57318;56.232;43.944;2023-05-22T00:31:22;100040.13;;;12.87;66.00
69980;BME280;57318;56.232;43.944;2023-05-22T00:33:48;100046.47;;;12.86;66.07
69980;BME280;57318;56.232;43.944;2023-05-22T00:36:14;100048.25;;;12.86;65.85
69980;BME280;57318;56.232;43.944;2023-05-22T00:38:40;100046.56;;;12.85;65.87
69980;BME280;57318;56.232;43.944;2023-05-22T00:41:06;100048.38;;;12.84;65.98
69980;BME280;57318;56.232;43.944;2023-05-22T00:43:32;100055.53;;;12.84;66.08
69980;BME280;57318;56.232;43.944;2023-05-22T00:45:58;100053.00;;;12.82;65.98
69980;BME280;57318;56.232;43.944;2023-05-22T00:48:24;100048.16;;;12.76;66.08
69980;BME280;57318;56.232;43.944;2023-05-22T00:50:51;100049.13;;;12.75;66.04
69980;BME280;57318;56.232;43.944;2023-05-22T00:53:19;100054.59;;;12.73;65.88
69980;BME280;57318;56.232;43.944;2023-05-22T00:55:45;100045.59;;;12.74;66.04
69980;BME280;57318;56.232;43.944;2023-05-22T00:58:16;100054.47;;;12.75;65.92
69980;BME280;57318;56.232;43.944;2023-05-22T01:00:43;100060.63;;;12.75;65.94
69980;BME280;57318;56.232;43.944;2023-05-22T01:03:11;100059.94;;;12.73;65.90
69980;BME280;57318;56.232;43.944;2023-05-22T01:05:38;100065.38;;;12.72;66.03
69980;BME280;57318;56.232;43.944;2023-05-22T01:08:06;100060.03;;;12.72;66.04
69980;BME280;57318;56.232;43.944;2023-05-22T01:10:34;100065.38;;;12.72;65.81
69980;BME280;57318;56.232;43.944;2023-05-22T01:13:13;100061.97;;;12.70;65.93
69980;BME280;57318;56.232;43.944;2023-05-22T01:16:04;100068.53;;;12.66;66.04
69980;BME280;57318;56.232;43.944;2023-05-22T01:21:41;100077.72;;;12.61;65.99
69980;BME280;57318;56.232;43.944;2023-05-22T01:24:19;100073.34;;;12.60;66.07
69980;BME280;57318;56.232;43.944;2023-05-22T01:32:08;100070.44;;;12.63;65.24
69980;BME280;57318;56.232;43.944;2023-05-22T01:34:36;100071.19;;;12.66;65.01
69980;BME280;57318;56.232;43.944;2023-05-22T01:37:04;100071.91;;;12.68;64.87
69980;BME280;57318;56.232;43.944;2023-05-22T01:39:30;100069.13;;;12.69;64.93
69980;BME280;57318;56.232;43.944;2023-05-22T01:41:56;100071.78;;;12.69;64.97
69980;BME280;57318;56.232;43.944;2023-05-22T01:44:22;100069.97;;;12.70;64.58
69980;BME280;57318;56.232;43.944;2023-05-22T01:46:48;100073.38;;;12.72;64.32
69980;BME280;57318;56.232;43.944;2023-05-22T01:49:14;100074.94;;;12.74;63.48
69980;BME280;57318;56.232;43.944;2023-05-22T01:54:23;100074.09;;;12.85;62.13
69980;BME280;57318;56.232;43.944;2023-05-22T01:56:59;100080.41;;;12.95;61.69
69980;BME280;57318;56.232;43.944;2023-05-22T01:59:38;100083.53;;;13.00;61.60
69980;BME280;57318;56.232;43.944;2023-05-22T02:02:09;100087.63;;;13.05;61.95
69980;BME280;57318;56.232;43.944;2023-05-22T02:04:38;100081.94;;;13.09;61.64
69980;BME280;57318;56.232;43.944;2023-05-22T02:07:10;100081.56;;;13.14;60.53
69980;BME280;57318;56.232;43.944;2023-05-22T02:09:37;100083.63;;;13.22;60.75
69980;BME280;57318;56.232;43.944;2023-05-22T02:12:05;100084.72;;;13.30;60.29
69980;BME280;57318;56.232;43.944;2023-05-22T02:14:31;100078.16;;;13.34;59.58
69980;BME280;57318;56.232;43.944;2023-05-22T02:16:57;100088.22;;;13.42;60.66
69980;BME280;57318;56.232;43.944;2023-05-22T02:19:27;100086.03;;;13.47;60.90
69980;BME280;57318;56.232;43.944;2023-05-22T02:21:52;100091.97;;;13.51;60.53
69980;BME280;57318;56.232;43.944;2023-05-22T02:24:18;100086.50;;;13.52;59.25
69980;BME280;57318;56.232;43.944;2023-05-22T02:26:44;100087.78;;;13.58;58.69
69980;BME280;57318;56.232;43.944;2023-05-22T02:29:12;100091.41;;;13.68;59.76
69980;BME280;57318;56.232;43.944;2023-05-22T02:31:37;100095.66;;;13.71;60.06
69980;BME280;57318;56.232;43.944;2023-05-22T02:34:03;100088.38;;;13.73;59.31
69980;BME280;57318;56.232;43.944;2023-05-22T02:36:31;100096.25;;;13.75;59.91
69980;BME280;57318;56.232;43.944;2023-05-22T02:38:57;100103.19;;;13.77;60.57
69980;BME280;57318;56.232;43.944;2023-05-22T02:41:23;100094.03;;;13.80;60.06
69980;BME280;57318;56.232;43.944;2023-05-22T02:43:49;100099.13;;;13.83;59.58
69980;BME280;57318;56.232;43.944;2023-05-22T02:46:15;100098.50;;;13.90;58.42
69980;BME280;57318;56.232;43.944;2023-05-22T02:48:40;100097.84;;;13.98;57.58
69980;BME280;57318;56.232;43.944;2023-05-22T02:51:06;100100.72;;;14.06;57.10
69980;BME280;57318;56.232;43.944;2023-05-22T02:53:32;100097.28;;;14.16;56.92
69980;BME280;57318;56.232;43.944;2023-05-22T02:56:08;100104.50;;;14.25;56.56
69980;BME280;57318;56.232;43.944;2023-05-22T02:58:37;100097.69;;;14.32;57.12
69980;BME280;57318;56.232;43.944;2023-05-22T03:01:03;100102.91;;;14.34;56.96
69980;BME280;57318;56.232;43.944;2023-05-22T03:03:31;100100.09;;;14.35;56.85
69980;BME280;57318;56.232;43.944;2023-05-22T03:05:59;100102.94;;;14.43;56.42
69980;BME280;57318;56.232;43.944;2023-05-22T03:08:29;100111.16;;;14.52;55.78
69980;BME280;57318;56.232;43.944;2023-05-22T03:10:57;100115.00;;;14.59;56.24
69980;BME280;57318;56.232;43.944;2023-05-22T03:13:27;100119.59;;;14.68;56.31
69980;BME280;57318;56.232;43.944;2023-05-22T03:15:52;100120.75;;;14.75;56.42
69980;BME280;57318;56.232;43.944;2023-05-22T03:18:18;100119.25;;;14.83;56.38
69980;BME280;57318;56.232;43.944;2023-05-22T03:20:44;100121.38;;;14.89;54.80
69980;BME280;57318;56.232;43.944;2023-05-22T03:23:10;100121.44;;;14.98;55.24
69980;BME280;57318;56.232;43.944;2023-05-22T03:25:37;100125.09;;;15.07;54.75
69980;BME280;57318;56.232;43.944;2023-05-22T03:28:03;100118.66;;;15.20;54.40
69980;BME280;57318;56.232;43.944;2023-05-22T03:30:29;100127.88;;;15.27;53.76
69980;BME280;57318;56.232;43.944;2023-05-22T03:32:54;100125.47;;;15.33;54.37
69980;BME280;57318;56.232;43.944;2023-05-22T03:35:20;100123.81;;;15.42;53.36
69980;BME280;57318;56.232;43.944;2023-05-22T03:37:47;100129.75;;;15.56;53.35
69980;BME280;57318;56.232;43.944;2023-05-22T03:40:12;100121.03;;;15.63;53.16
69980;BME280;57318;56.232;43.944;2023-05-22T03:42:38;100120.75;;;15.76;53.29
69980;BME280;57318;56.232;43.944;2023-05-22T03:45:04;100116.28;;;15.86;53.06
69980;BME280;57318;56.232;43.944;2023-05-22T03:47:31;100126.44;;;16.02;53.65
69980;BME280;57318;56.232;43.944;2023-05-22T03:49:56;100130.53;;;16.16;53.47
69980;BME280;57318;56.232;43.944;2023-05-22T03:52:22;100132.94;;;16.29;53.24
69980;BME280;57318;56.232;43.944;2023-05-22T03:54:48;100124.44;;;16.44;52.72
69980;BME280;57318;56.232;43.944;2023-05-22T03:57:14;100124.84;;;16.58;52.76
69980;BME280;57318;56.232;43.944;2023-05-22T03:59:40;100124.09;;;16.76;52.05
69980;BME280;57318;56.232;43.944;2023-05-22T04:02:06;100132.53;;;16.91;50.86
69980;BME280;57318;56.232;43.944;2023-05-22T04:04:32;100134.47;;;16.99;50.95
69980;BME280;57318;56.232;43.944;2023-05-22T04:07:04;100128.22;;;17.08;51.11
69980;BME280;57318;56.232;43.944;2023-05-22T04:09:33;100128.72;;;17.21;51.34
69980;BME280;57318;56.232;43.944;2023-05-22T04:12:00;100133.03;;;17.32;51.00
69980;BME280;57318;56.232;43.944;2023-05-22T04:14:27;100126.63;;;17.43;51.26
69980;BME280;57318;56.232;43.944;2023-05-22T04:16:52;100126.63;;;17.43;49.74
69980;BME280;57318;56.232;43.944;2023-05-22T04:19:18;100123.72;;;17.54;50.58
69980;BME280;57318;56.232;43.944;2023-05-22T04:21:45;100131.03;;;17.62;50.49
69980;BME280;57318;56.232;43.944;2023-05-22T04:24:12;100134.34;;;17.74;50.58
69980;BME280;57318;56.232;43.944;2023-05-22T04:26:37;100131.75;;;17.82;49.99
69980;BME280;57318;56.232;43.944;2023-05-22T04:29:03;100125.84;;;17.96;50.11
69980;BME280;57318;56.232;43.944;2023-05-22T04:31:35;100131.31;;;18.04;49.39
69980;BME280;57318;56.232;43.944;2023-05-22T04:34:01;100138.53;;;18.22;49.55
69980;BME280;57318;56.232;43.944;2023-05-22T04:36:28;100131.25;;;18.40;49.38
69980;BME280;57318;56.232;43.944;2023-05-22T04:38:55;100131.72;;;18.54;49.11
69980;BME280;57318;56.232;43.944;2023-05-22T04:41:21;100132.13;;;18.67;48.75
69980;BME280;57318;56.232;43.944;2023-05-22T04:43:53;100131.72;;;18.80;48.53
69980;BME280;57318;56.232;43.944;2023-05-22T04:46:19;100130.13;;;18.96;47.87
69980;BME280;57318;56.232;43.944;2023-05-22T04:48:45;100133.44;;;19.16;48.08
69980;BME280;57318;56.232;43.944;2023-05-22T04:51:15;100136.22;;;19.32;47.74
69980;BME280;57318;56.232;43.944;2023-05-22T04:53:41;100136.91;;;19.42;47.12
69980;BME280;57318;56.232;43.944;2023-05-22T04:56:06;100139.63;;;19.51;46.95
69980;BME280;57318;56.232;43.944;2023-05-22T04:58:32;100136.09;;;19.58;46.88
69980;BME280;57318;56.232;43.944;2023-05-22T05:00:58;100139.66;;;19.67;46.86
69980;BME280;57318;56.232;43.944;2023-05-22T05:03:24;100133.31;;;19.76;46.01
69980;BME280;57318;56.232;43.944;2023-05-22T05:05:50;100140.25;;;19.87;45.59
69980;BME280;57318;56.232;43.944;2023-05-22T05:08:16;100140.44;;;19.94;45.58
69980;BME280;57318;56.232;43.944;2023-05-22T05:10:42;100140.09;;;19.97;45.78
69980;BME280;57318;56.232;43.944;2023-05-22T05:13:08;100141.75;;;19.98;45.46
69980;BME280;57318;56.232;43.944;2023-05-22T05:15:34;100135.56;;;20.14;45.21
69980;BME280;57318;56.232;43.944;2023-05-22T05:17:59;100138.06;;;20.32;45.14
69980;BME280;57318;56.232;43.944;2023-05-22T05:20:25;100138.75;;;20.42;45.03
69980;BME280;57318;56.232;43.944;2023-05-22T05:22:52;100141.97;;;20.37;45.13
69980;BME280;57318;56.232;43.944;2023-05-22T05:25:18;100147.84;;;20.49;45.06
69980;BME280;57318;56.232;43.944;2023-05-22T05:27:44;100140.63;;;20.50;45.01
69980;BME280;57318;56.232;43.944;2023-05-22T05:30:09;100143.47;;;20.57;44.51
69980;BME280;57318;56.232;43.944;2023-05-22T05:32:36;100140.94;;;20.71;44.49
69980;BME280;57318;56.232;43.944;2023-05-22T05:35:02;100143.81;;;20.78;44.46
69980;BME280;57318;56.232;43.944;2023-05-22T05:37:30;100143.44;;;20.89;44.71
69980;BME280;57318;56.232;43.944;2023-05-22T05:39:56;100144.94;;;20.92;44.16
69980;BME280;57318;56.232;43.944;2023-05-22T05:42:22;100151.03;;;20.94;44.01
69980;BME280;57318;56.232;43.944;2023-05-22T05:44:47;100149.13;;;21.03;43.79
69980;BME280;57318;56.232;43.944;2023-05-22T05:47:13;100149.44;;;21.08;43.58
69980;BME280;57318;56.232;43.944;2023-05-22T05:49:39;100152.47;;;21.13;43.74
69980;BME280;57318;56.232;43.944;2023-05-22T05:52:05;100153.81;;;21.17;43.39
69980;BME280;57318;56.232;43.944;2023-05-22T05:54:32;100151.75;;;21.27;43.35
69980;BME280;57318;56.232;43.944;2023-05-22T05:56:58;100143.25;;;21.39;43.51
69980;BME280;57318;56.232;43.944;2023-05-22T05:59:24;100147.09;;;21.53;42.75
69980;BME280;57318;56.232;43.944;2023-05-22T06:01:49;100149.03;;;21.67;42.43
69980;BME280;57318;56.232;43.944;2023-05-22T06:04:15;100148.44;;;21.88;41.66
69980;BME280;57318;56.232;43.944;2023-05-22T06:06:41;100139.09;;;22.14;41.46
69980;BME280;57318;56.232;43.944;2023-05-22T06:09:08;100142.47;;;22.39;40.85
69980;BME280;57318;56.232;43.944;2023-05-22T06:11:34;100143.72;;;22.66;40.42
69980;BME280;57318;56.232;43.944;2023-05-22T06:14:01;100143.66;;;22.89;39.78
69980;BME280;57318;56.232;43.944;2023-05-22T06:16:29;100147.59;;;23.17;38.97
69980;BME280;57318;56.232;43.944;2023-05-22T06:18:58;100150.66;;;23.43;38.33
69980;BME280;57318;56.232;43.944;2023-05-22T06:21:25;100148.66;;;23.67;38.18
69980;BME280;57318;56.232;43.944;2023-05-22T06:23:50;100150.41;;;23.90;37.42
69980;BME280;57318;56.232;43.944;2023-05-22T06:26:16;100147.69;;;24.11;37.02
69980;BME280;57318;56.232;43.944;2023-05-22T06:28:43;100146.25;;;24.37;37.44
69980;BME280;57318;56.232;43.944;2023-05-22T06:31:09;100143.97;;;24.62;36.99
69980;BME280;57318;56.232;43.944;2023-05-22T06:33:35;100144.94;;;24.83;36.27
69980;BME280;57318;56.232;43.944;2023-05-22T06:36:03;100146.75;;;25.04;36.05
69980;BME280;57318;56.232;43.944;2023-05-22T06:38:30;100154.97;;;25.52;35.25
69980;BME280;57318;56.232;43.944;2023-05-22T06:40:55;100142.16;;;26.35;34.17
69980;BME280;57318;56.232;43.944;2023-05-22T06:43:21;100147.72;;;27.40;32.50
69980;BME280;57318;56.232;43.944;2023-05-22T06:45:47;100145.69;;;28.31;31.04
69980;BME280;57318;56.232;43.944;2023-05-22T06:48:13;100151.13;;;29.44;29.43
69980;BME280;57318;56.232;43.944;2023-05-22T06:50:39;100150.06;;;30.36;27.69
69980;BME280;57318;56.232;43.944;2023-05-22T06:53:04;100149.94;;;31.25;26.70
69980;BME280;57318;56.232;43.944;2023-05-22T06:55:30;100150.97;;;31.77;25.86
69980;BME280;57318;56.232;43.944;2023-05-22T06:57:57;100154.00;;;32.21;25.04
69980;BME280;57318;56.232;43.944;2023-05-22T07:00:22;100153.00;;;32.61;24.43
69980;BME280;57318;56.232;43.944;2023-05-22T07:02:48;100154.06;;;33.33;23.82
69980;BME280;57318;56.232;43.944;2023-05-22T07:05:14;100159.50;;;33.72;22.79
69980;BME280;57318;56.232;43.944;2023-05-22T07:07:39;100154.03;;;34.05;22.66
69980;BME280;57318;56.232;43.944;2023-05-22T07:10:06;100150.66;;;34.25;22.35
69980;BME280;57318;56.232;43.944;2023-05-22T07:12:32;100151.91;;;34.44;21.51
69980;BME280;57318;56.232;43.944;2023-05-22T07:14:57;100143.00;;;34.32;21.13
69980;BME280;57318;56.232;43.944;2023-05-22T07:17:25;100156.50;;;34.06;20.90
69980;BME280;57318;56.232;43.944;2023-05-22T07:19:51;100154.38;;;34.13;21.24
69980;BME280;57318;56.232;43.944;2023-05-22T07:22:16;100140.19;;;34.27;21.43
69980;BME280;57318;56.232;43.944;2023-05-22T07:24:42;100150.00;;;34.17;21.22
69980;BME280;57318;56.232;43.944;2023-05-22T07:27:08;100153.16;;;33.99;20.92
69980;BME280;57318;56.232;43.944;2023-05-22T07:29:35;100134.69;;;33.72;21.25
69980;BME280;57318;56.232;43.944;2023-05-22T07:32:02;100140.41;;;33.43;21.72
69980;BME280;57318;56.232;43.944;2023-05-22T07:34:28;100143.28;;;33.54;22.24
69980;BME280;57318;56.232;43.944;2023-05-22T07:36:57;100147.28;;;33.90;22.09
69980;BME280;57318;56.232;43.944;2023-05-22T07:39:23;100145.69;;;34.27;21.25
69980;BME280;57318;56.232;43.944;2023-05-22T07:41:49;100146.91;;;34.79;20.71
69980;BME280;57318;56.232;43.944;2023-05-22T07:44:15;100147.50;;;35.34;20.28
69980;BME280;57318;56.232;43.944;2023-05-22T07:46:40;100144.84;;;35.70;19.61
69980;BME280;57318;56.232;43.944;2023-05-22T07:49:06;100152.69;;;36.09;19.41
69980;BME280;57318;56.232;43.944;2023-05-22T07:51:32;100146.06;;;36.36;19.26
69980;BME280;57318;56.232;43.944;2023-05-22T07:53:58;100149.94;;;36.35;19.22
69980;BME280;57318;56.232;43.944;2023-05-22T07:56:24;100148.81;;;36.77;18.36
69980;BME280;57318;56.232;43.944;2023-05-22T07:58:52;100151.56;;;36.77;18.42
69980;BME280;57318;56.232;43.944;2023-05-22T08:01:18;100153.09;;;37.29;17.77
69980;BME280;57318;56.232;43.944;2023-05-22T08:03:43;100151.63;;;37.97;17.31
69980;BME280;57318;56.232;43.944;2023-05-22T08:06:09;100149.91;;;38.06;16.72
69980;BME280;57318;56.232;43.944;2023-05-22T08:08:35;100150.34;;;38.24;15.94
69980;BME280;57318;56.232;43.944;2023-05-22T08:11:01;100147.78;;;38.62;15.07
69980;BME280;57318;56.232;43.944;2023-05-22T08:13:27;100147.84;;;38.81;16.11
69980;BME280;57318;56.232;43.944;2023-05-22T08:15:52;100149.66;;;39.20;15.92
69980;BME280;57318;56.232;43.944;2023-05-22T08:18:18;100144.47;;;39.57;15.51
69980;BME280;57318;56.232;43.944;2023-05-22T08:20:44;100158.97;;;39.92;14.60
69980;BME280;57318;56.232;43.944;2023-05-22T08:23:12;100148.38;;;40.13;13.92
69980;BME280;57318;56.232;43.944;2023-05-22T08:25:38;100153.50;;;40.05;14.44
69980;BME280;57318;56.232;43.944;2023-05-22T08:28:03;100143.47;;;40.23;14.19
69980;BME280;57318;56.232;43.944;2023-05-22T08:30:29;100147.03;;;40.43;13.45
69980;BME280;57318;56.232;43.944;2023-05-22T08:32:55;100151.91;;;40.51;13.61
69980;BME280;57318;56.232;43.944;2023-05-22T08:35:21;100154.09;;;40.35;13.99
69980;BME280;57318;56.232;43.944;2023-05-22T08:37:46;100154.41;;;40.67;13.43
69980;BME280;57318;56.232;43.944;2023-05-22T08:40:13;100140.94;;;40.08;13.74
69980;BME280;57318;56.232;43.944;2023-05-22T08:42:41;100137.41;;;39.83;14.07
69980;BME280;57318;56.232;43.944;2023-05-22T08:45:07;100141.94;;;39.79;14.10
69980;BME280;57318;56.232;43.944;2023-05-22T08:47:34;100138.31;;;40.17;13.62
69980;BME280;57318;56.232;43.944;2023-05-22T08:50:02;100139.28;;;40.07;13.16
69980;BME280;57318;56.232;43.944;2023-05-22T08:52:46;100143.91;;;40.77;12.37
69980;BME280;57318;56.232;43.944;2023-05-22T08:55:12;100139.25;;;41.42;11.90
69980;BME280;57318;56.232;43.944;2023-05-22T08:57:38;100136.19;;;42.03;11.54
69980;BME280;57318;56.232;43.944;2023-05-22T09:00:05;100144.03;;;43.00;10.82
69980;BME280;57318;56.232;43.944;2023-05-22T09:02:37;100140.97;;;43.37;9.83
69980;BME280;57318;56.232;43.944;2023-05-22T09:05:06;100129.19;;;43.84;9.53
69980;BME280;57318;56.232;43.944;2023-05-22T09:07:34;100139.22;;;44.76;9.43
69980;BME280;57318;56.232;43.944;2023-05-22T09:10:00;100136.28;;;44.72;8.23
69980;BME280;57318;56.232;43.944;2023-05-22T09:12:32;100124.75;;;44.65;8.47
69980;BME280;57318;56.232;43.944;2023-05-22T09:15:10;100125.91;;;43.99;9.14
69980;BME280;57318;56.232;43.944;2023-05-22T09:17:39;100121.94;;;43.48;9.70
69980;BME280;57318;56.232;43.944;2023-05-22T09:20:06;100120.94;;;42.86;10.05
69980;BME280;57318;56.232;43.944;2023-05-22T09:22:36;100115.78;;;42.70;10.47
69980;BME280;57318;56.232;43.944;2023-05-22T09:25:05;100107.16;;;42.58;10.08
69980;BME280;57318;56.232;43.944;2023-05-22T09:27:33;100113.13;;;42.65;10.36
69980;BME280;57318;56.232;43.944;2023-05-22T09:29:59;100110.50;;;42.78;9.93
69980;BME280;57318;56.232;43.944;2023-05-22T09:32:28;100099.66;;;42.67;9.06
69980;BME280;57318;56.232;43.944;2023-05-22T09:35:01;100105.72;;;42.38;10.01
69980;BME280;57318;56.232;43.944;2023-05-22T09:37:27;100093.63;;;41.97;9.84
69980;BME280;57318;56.232;43.944;2023-05-22T09:39:53;100095.47;;;41.79;9.49
69980;BME280;57318;56.232;43.944;2023-05-22T09:42:23;100090.97;;;42.15;9.62
69980;BME280;57318;56.232;43.944;2023-05-22T09:44:50;100101.09;;;42.65;9.01
69980;BME280;57318;56.232;43.944;2023-05-22T09:47:16;100096.53;;;42.78;10.00
69980;BME280;57318;56.232;43.944;2023-05-22T09:49:43;100083.75;;;42.77;9.86
69980;BME280;57318;56.232;43.944;2023-05-22T09:52:10;100093.19;;;42.58;9.43
69980;BME280;57318;56.232;43.944;2023-05-22T09:54:55;100084.34;;;42.33;8.87
69980;BME280;57318;56.232;43.944;2023-05-22T09:57:24;100083.44;;;42.47;8.80
69980;BME280;57318;56.232;43.944;2023-05-22T09:59:53;100072.66;;;42.31;8.70
69980;BME280;57318;56.232;43.944;2023-05-22T10:02:24;100076.56;;;42.53;8.56
69980;BME280;57318;56.232;43.944;2023-05-22T10:04:50;100076.44;;;41.81;8.53
69980;BME280;57318;56.232;43.944;2023-05-22T10:07:30;100071.75;;;40.62;8.46
69980;BME280;57318;56.232;43.944;2023-05-22T10:10:05;100071.16;;;39.85;8.67
69980;BME280;57318;56.232;43.944;2023-05-22T10:12:32;100072.31;;;39.65;8.99
69980;BME280;57318;56.232;43.944;2023-05-22T10:15:02;100065.97;;;39.41;8.71
69980;BME280;57318;56.232;43.944;2023-05-22T10:17:31;100050.28;;;38.88;8.40
69980;BME280;57318;56.232;43.944;2023-05-22T10:19:57;100050.22;;;38.93;8.44
69980;BME280;57318;56.232;43.944;2023-05-22T10:22:24;100049.03;;;38.99;8.80
69980;BME280;57318;56.232;43.944;2023-05-22T10:24:53;100053.50;;;37.88;9.17
69980;BME280;57318;56.232;43.944;2023-05-22T10:27:19;100041.88;;;36.86;9.36
69980;BME280;57318;56.232;43.944;2023-05-22T10:30:00;100047.81;;;36.33;10.31
69980;BME280;57318;56.232;43.944;2023-05-22T10:35:19;100039.38;;;36.90;10.28
69980;BME280;57318;56.232;43.944;2023-05-22T10:37:49;100039.19;;;37.76;9.35
69980;BME280;57318;56.232;43.944;2023-05-22T10:40:29;100034.97;;;38.90;8.34
69980;BME280;57318;56.232;43.944;2023-05-22T10:43:00;100041.38;;;39.86;8.18
69980;BME280;57318;56.232;43.944;2023-05-22T10:45:27;100037.78;;;40.32;7.20
69980;BME280;57318;56.232;43.944;2023-05-22T10:48:03;100038.06;;;39.32;7.77
69980;BME280;57318;56.232;43.944;2023-05-22T10:50:29;100040.06;;;38.35;8.53
69980;BME280;57318;56.232;43.944;2023-05-22T10:55:58;100027.38;;;35.83;10.63
69980;BME280;57318;56.232;43.944;2023-05-22T10:58:33;100023.88;;;34.40;11.29
69980;BME280;57318;56.232;43.944;2023-05-22T11:01:17;100018.47;;;33.26;12.28
69980;BME280;57318;56.232;43.944;2023-05-22T11:11:41;100007.19;;;32.22;14.22
69980;BME280;57318;56.232;43.944;2023-05-22T11:14:06;100012.97;;;33.86;13.41
69980;BME280;57318;56.232;43.944;2023-05-22T11:16:32;100021.22;;;34.66;12.48
69980;BME280;57318;56.232;43.944;2023-05-22T11:19:08;100017.16;;;35.83;12.24
69980;BME280;57318;56.232;43.944;2023-05-22T11:21:35;100006.31;;;36.38;11.49
69980;BME280;57318;56.232;43.944;2023-05-22T11:24:01;100025.25;;;36.91;11.21
69980;BME280;57318;56.232;43.944;2023-05-22T11:26:27;100020.94;;;37.64;10.73
69980;BME280;57318;56.232;43.944;2023-05-22T11:28:53;100021.09;;;37.83;9.92
69980;BME280;57318;56.232;43.944;2023-05-22T11:31:19;100027.19;;;38.15;9.94
69980;BME280;57318;56.232;43.944;2023-05-22T11:33:47;100024.16;;;38.11;10.03
69980;BME280;57318;56.232;43.944;2023-05-22T11:36:13;100016.97;;;38.39;9.58
69980;BME280;57318;56.232;43.944;2023-05-22T11:38:41;100018.81;;;37.90;9.82
69980;BME280;57318;56.232;43.944;2023-05-22T11:41:08;100013.22;;;37.22;10.55
69980;BME280;57318;56.232;43.944;2023-05-22T11:43:36;100015.88;;;36.72;10.41
69980;BME280;57318;56.232;43.944;2023-05-22T11:46:06;100013.25;;;36.20;11.06
69980;BME280;57318;56.232;43.944;2023-05-22T11:48:33;100023.81;;;35.77;11.11
69980;BME280;57318;56.232;43.944;2023-05-22T11:50:59;100003.16;;;35.01;10.49
69980;BME280;57318;56.232;43.944;2023-05-22T11:53:25;100003.09;;;34.75;10.74
69980;BME280;57318;56.232;43.944;2023-05-22T11:55:51;100007.16;;;35.46;10.48
69980;BME280;57318;56.232;43.944;2023-05-22T11:58:20;100010.81;;;35.93;9.35
69980;BME280;57318;56.232;43.944;2023-05-22T12:00:47;100006.03;;;36.45;9.32
69980;BME280;57318;56.232;43.944;2023-05-22T12:03:12;99999.75;;;36.99;9.04
69980;BME280;57318;56.232;43.944;2023-05-22T12:05:38;100007.69;;;37.56;8.85
69980;BME280;57318;56.232;43.944;2023-05-22T12:08:04;100002.75;;;37.53;8.55
69980;BME280;57318;56.232;43.944;2023-05-22T12:10:30;100000.72;;;37.59;8.39
69980;BME280;57318;56.232;43.944;2023-05-22T12:12:56;100010.59;;;38.09;8.26
69980;BME280;57318;56.232;43.944;2023-05-22T12:15:23;100011.34;;;38.20;7.68
69980;BME280;57318;56.232;43.944;2023-05-22T12:17:48;99989.00;;;38.55;7.99
69980;BME280;57318;56.232;43.944;2023-05-22T12:20:14;100002.44;;;38.48;7.95
69980;BME280;57318;56.232;43.944;2023-05-22T12:22:40;99991.13;;;38.39;7.65
69980;BME280;57318;56.232;43.944;2023-05-22T12:25:16;99990.78;;;38.21;7.87
69980;BME280;57318;56.232;43.944;2023-05-22T12:27:43;99990.81;;;38.45;7.92
69980;BME280;57318;56.232;43.944;2023-05-22T12:30:12;99996.44;;;38.65;7.86
69980;BME280;57318;56.232;43.944;2023-05-22T12:32:39;99997.53;;;39.07;7.82
69980;BME280;57318;56.232;43.944;2023-05-22T12:35:05;99996.88;;;38.91;8.10
69980;BME280;57318;56.232;43.944;2023-05-22T12:37:32;99985.41;;;37.71;8.87
69980;BME280;57318;56.232;43.944;2023-05-22T12:39:59;99991.16;;;35.84;10.08
69980;BME280;57318;56.232;43.944;2023-05-22T12:42:26;99979.56;;;34.62;11.18
69980;BME280;57318;56.232;43.944;2023-05-22T12:44:53;99977.31;;;34.11;11.54
69980;BME280;57318;56.232;43.944;2023-05-22T12:47:20;99976.97;;;34.35;11.34
69980;BME280;57318;56.232;43.944;2023-05-22T12:49:45;99992.97;;;35.06;11.03
69980;BME280;57318;56.232;43.944;2023-05-22T12:52:11;99986.16;;;35.55;10.47
69980;BME280;57318;56.232;43.944;2023-05-22T12:54:37;99977.88;;;35.45;10.39
69980;BME280;57318;56.232;43.944;2023-05-22T12:57:03;99987.81;;;35.51;10.06
69980;BME280;57318;56.232;43.944;2023-05-22T12:59:29;99980.63;;;35.40;9.69
69980;BME280;57318;56.232;43.944;2023-05-22T13:01:56;99983.41;;;35.55;10.35
69980;BME280;57318;56.232;43.944;2023-05-22T13:04:29;99980.09;;;35.53;10.02
69980;BME280;57318;56.232;43.944;2023-05-22T13:06:55;99978.44;;;35.52;10.15
69980;BME280;57318;56.232;43.944;2023-05-22T13:09:21;99977.06;;;35.81;10.22